Time;durP1;ratioP1;P1;durP2;ratioP2;P2;SDS_P1;SDS_P2;PMS_P1;PMS_P2;Temp;Humidity;BMP_temperature;BMP_pressure;BME280_temperature;BME280_humidity;BME280_pressure;Samples;Min_cycle;Max_cycle;Signal;HPM_P1;HPM_P2
2022/06/26 00:01:03;;;;;;;11.70;8.13;;;18.10;99.90;;;;;;6278157;22;20024;-91
2022/06/26 00:04:35;;;;;;;11.88;7.68;;;18.10;99.90;;;;;;6250263;22;20027;-91
2022/06/26 00:07:01;;;;;;;12.90;8.82;;;18.10;99.90;;;;;;6248719;22;20024;-91
2022/06/26 00:09:31;;;;;;;13.38;8.25;;;18.10;99.90;;;;;;6249750;22;20095;-91
2022/06/26 00:12:00;;;;;;;11.95;7.80;;;18.70;99.90;;;;;;6248310;22;20020;-91
2022/06/26 00:14:36;;;;;;;12.55;8.05;;;18.10;99.90;;;;;;6277617;22;20016;-90
2022/06/26 00:17:13;;;;;;;14.70;8.02;;;19.00;99.90;;;;;;6249873;22;20015;-91
2022/06/26 00:19:54;;;;;;;13.75;8.25;;;18.00;99.90;;;;;;6280105;22;20022;-92
2022/06/26 00:22:23;;;;;;;13.63;8.50;;;18.00;99.90;;;;;;6250646;22;20012;-91
2022/06/26 00:24:49;;;;;;;15.02;8.15;;;17.90;99.90;;;;;;6249047;22;20069;-91
2022/06/26 00:27:27;;;;;;;13.45;8.38;;;18.10;99.90;;;;;;6276406;22;20497;-91
2022/06/26 00:29:56;;;;;;;16.20;9.23;;;18.60;99.90;;;;;;6277117;22;20055;-92
2022/06/26 00:32:25;;;;;;;12.50;8.40;;;18.50;99.90;;;;;;6250376;22;20012;-91
2022/06/26 00:35:01;;;;;;;15.75;8.77;;;18.30;99.90;;;;;;6249403;22;20022;-91
2022/06/26 00:37:45;;;;;;;12.82;8.80;;;17.80;99.90;;;;;;6250617;22;20019;-91
2022/06/26 00:40:28;;;;;;;;;;;17.70;99.90;;;;;;6251015;22;20076;-91
2022/06/26 00:43:16;;;;;;;13.32;8.38;;;17.70;99.90;;;;;;6250082;22;20389;-91
2022/06/26 00:45:45;;;;;;;13.88;8.90;;;17.40;99.90;;;;;;6249876;22;20019;-91
2022/06/26 00:48:16;;;;;;;14.38;9.75;;;17.60;99.90;;;;;;6278756;22;20011;-90
2022/06/26 00:50:54;;;;;;;15.15;9.45;;;18.30;99.90;;;;;;6278912;22;20011;-91
2022/06/26 00:53:26;;;;;;;13.65;9.35;;;18.60;99.90;;;;;;6305037;22;20030;-91
2022/06/26 00:56:01;;;;;;;14.48;9.65;;;18.30;99.90;;;;;;6285591;22;20065;-91
2022/06/26 00:58:34;;;;;;;14.40;9.40;;;17.60;99.90;;;;;;6281274;22;20317;-91
2022/06/26 01:01:36;;;;;;;17.42;10.75;;;17.60;99.90;;;;;;6277857;22;20499;-92
2022/06/26 01:04:16;;;;;;;16.35;10.15;;;17.50;99.90;;;;;;6240298;22;20078;-92
2022/06/26 01:06:57;;;;;;;14.60;10.38;;;17.60;99.90;;;;;;6249635;22;20466;-91
2022/06/26 01:09:35;;;;;;;16.13;10.60;;;17.60;99.90;;;;;;6248669;22;20020;-91
2022/06/26 01:12:10;;;;;;;15.43;10.75;;;17.90;99.90;;;;;;6250575;22;20019;-92
2022/06/26 01:14:46;;;;;;;15.57;10.23;;;18.40;99.90;;;;;;6250246;22;20058;-91
2022/06/26 01:17:30;;;;;;;15.02;10.55;;;17.60;99.90;;;;;;6277203;22;20106;-92
2022/06/26 01:20:14;;;;;;;16.00;10.68;;;17.50;99.90;;;;;;6276619;22;20077;-91
2022/06/26 01:26:30;;;;;;;15.07;9.98;;;17.60;99.90;;;;;;6250393;22;20022;-92
2022/06/26 01:29:21;;;;;;;16.42;10.93;;;18.60;99.90;;;;;;6274852;22;20098;-92
2022/06/26 01:32:18;;;;;;;15.25;9.90;;;17.50;99.90;;;;;;6249412;22;20012;-92
2022/06/26 01:35:05;;;;;;;16.05;10.23;;;17.60;99.90;;;;;;6276665;22;20016;-91
2022/06/26 01:37:49;;;;;;;15.73;11.00;;;17.60;99.90;;;;;;6249604;22;20016;-92
2022/06/26 01:40:46;;;;;;;16.73;11.18;;;17.60;99.90;;;;;;6249678;22;20048;-91
2022/06/26 01:46:10;;;;;;;18.27;13.00;;;17.70;99.90;;;;;;6245845;22;20445;-92
2022/06/26 01:48:45;;;;;;;18.20;13.25;;;17.90;99.90;;;;;;6219043;23;20062;-92
2022/06/26 01:51:46;;;;;;;20.45;14.38;;;18.90;99.90;;;;;;6245236;23;20012;-91
2022/06/26 01:54:17;;;;;;;20.40;13.25;;;17.70;99.90;;;;;;6219040;23;20020;-92
2022/06/26 01:57:34;;;;;;;19.60;13.15;;;18.30;99.90;;;;;;6262422;22;20019;-91
2022/06/26 02:00:23;;;;;;;18.05;12.77;;;18.40;99.90;;;;;;6248532;22;20023;-91
2022/06/26 02:02:55;;;;;;;19.65;12.57;;;18.50;99.90;;;;;;6276325;22;20012;-91
2022/06/26 02:05:37;;;;;;;17.52;12.48;;;19.50;99.90;;;;;;6248114;22;20482;-91
2022/06/26 02:08:15;;;;;;;16.98;12.65;;;18.70;99.90;;;;;;6249344;22;20026;-91
2022/06/26 02:13:37;;;;;;;21.73;13.35;;;18.90;99.90;;;;;;6277290;22;20031;-96
2022/06/26 02:16:27;;;;;;;21.33;14.15;;;18.50;99.90;;;;;;6249524;22;20439;-93
2022/06/26 02:19:16;;;;;;;21.63;14.70;;;18.50;99.90;;;;;;6275103;22;20012;-94
2022/06/26 02:21:43;;;;;;;23.00;15.77;;;18.50;99.90;;;;;;6249612;22;20517;-94
2022/06/26 02:24:09;;;;;;;22.10;15.70;;;19.20;99.90;;;;;;6246637;22;20019;-93
2022/06/26 02:27:44;;;;;;;24.23;16.67;;;19.10;99.90;;;;;;6251854;22;20454;-93
2022/06/26 02:31:08;;;;;;;23.65;16.42;;;18.30;99.90;;;;;;6250257;22;20063;-94
2022/06/26 02:37:54;;;;;;;;;;;;;;;;;;;;;
2022/06/26 02:40:44;;;;;;;24.58;17.15;;;18.20;99.90;;;;;;6240857;22;20023;-94
2022/06/26 02:43:34;;;;;;;24.75;17.95;;;18.20;99.90;;;;;;6270503;22;20023;-94
2022/06/26 02:46:15;;;;;;;25.40;17.05;;;17.90;99.90;;;;;;6252769;22;20027;-93
2022/06/26 02:48:56;;;;;;;27.98;19.55;;;18.10;99.90;;;;;;6249935;22;20019;-94
2022/06/26 02:51:31;;;;;;;28.60;18.02;;;18.10;99.90;;;;;;6259998;22;20004;-93
2022/06/26 02:54:27;;;;;;;25.83;19.23;;;18.10;99.90;;;;;;6263764;22;20019;-93
2022/06/26 02:57:11;;;;;;;24.63;18.13;;;17.90;99.90;;;;;;6276924;22;20111;-93
2022/06/26 02:59:52;;;;;;;27.45;19.30;;;17.80;99.90;;;;;;6249493;22;20340;-92
2022/06/26 03:02:55;;;;;;;26.15;18.33;;;19.00;99.90;;;;;;6275497;22;20012;-93
2022/06/26 03:05:35;;;;;;;26.70;18.73;;;18.00;99.90;;;;;;6277275;22;20069;-93
2022/06/26 03:08:10;;;;;;;26.05;18.38;;;17.90;99.90;;;;;;6275136;22;20090;-92
2022/06/26 03:11:11;;;;;;;27.30;17.95;;;18.00;99.90;;;;;;6276920;22;20023;-92
2022/06/26 03:13:37;;;;;;;25.15;17.10;;;18.00;99.90;;;;;;6254465;22;20023;-93
2022/06/26 03:16:22;;;;;;;27.33;16.70;;;18.40;99.90;;;;;;6248925;22;20022;-92
2022/06/26 03:18:54;;;;;;;24.45;16.48;;;18.40;99.90;;;;;;6273771;22;20046;-92
2022/06/26 03:21:55;;;;;;;22.20;16.00;;;17.90;99.90;;;;;;6248793;22;20020;-93
2022/06/26 03:27:55;;;;;;;21.35;14.77;;;17.70;99.90;;;;;;6157884;23;20040;-93
2022/06/26 03:31:11;;;;;;;;;;;;;;;;;;;;;
2022/06/26 03:37:16;;;;;;;17.08;11.82;;;17.90;99.90;;;;;;6157106;23;20017;-92
2022/06/26 03:39:57;;;;;;;17.67;11.60;;;17.50;99.90;;;;;;6223228;22;20474;-94
2022/06/26 03:42:32;;;;;;;17.80;10.57;;;18.10;99.90;;;;;;6248818;22;20015;-92
2022/06/26 03:45:25;;;;;;;17.00;10.57;;;18.40;99.90;;;;;;6249032;22;20463;-93
2022/06/26 03:48:00;;;;;;;17.27;10.45;;;17.40;99.90;;;;;;6247656;22;20020;-93
2022/06/26 03:50:47;;;;;;;18.27;9.70;;;17.40;99.90;;;;;;6253421;22;20020;-93
2022/06/26 03:53:41;;;;;;;15.88;10.00;;;17.40;99.90;;;;;;6220982;23;20012;-93
2022/06/26 03:56:12;;;;;;;15.18;9.93;;;17.30;99.90;;;;;;6248581;23;20476;-92
2022/06/26 03:58:41;;;;;;;16.45;10.00;;;18.40;99.90;;;;;;6246998;22;20015;-94
2022/06/26 04:01:13;;;;;;;15.45;9.48;;;18.30;99.90;;;;;;6277770;22;20008;-91
2022/06/26 04:03:49;;;;;;;15.45;9.25;;;18.20;99.90;;;;;;6278088;22;20026;-93
2022/06/26 04:06:53;;;;;;;16.25;8.60;;;16.90;99.90;;;;;;6296215;22;20019;-94
2022/06/26 04:09:21;;;;;;;14.27;9.33;;;17.10;99.90;;;;;;6107616;23;20451;-93
2022/06/26 04:15:01;;;;;;;14.38;9.18;;;17.10;99.90;;;;;;6115674;22;20537;-92
2022/06/26 04:17:36;;;;;;;15.18;9.10;;;17.00;99.90;;;;;;6252471;22;20019;-92
2022/06/26 04:20:43;;;;;;;15.75;9.30;;;17.00;99.90;;;;;;6249938;22;20054;-93
2022/06/26 04:23:24;;;;;;;15.45;8.65;;;17.00;99.90;;;;;;6100975;23;20497;-93
2022/06/26 04:25:52;;;;;;;17.42;9.15;;;17.00;99.90;;;;;;6259576;22;20033;-93
2022/06/26 04:28:30;;;;;;;15.73;9.48;;;17.20;99.90;;;;;;6250539;22;20015;-93
2022/06/26 04:31:14;;;;;;;15.38;8.98;;;17.00;99.90;;;;;;6278003;22;20074;-94
2022/06/26 04:33:40;;;;;;;15.63;8.75;;;17.70;99.90;;;;;;6276984;22;20114;-93
2022/06/26 04:36:12;;;;;;;14.98;8.75;;;17.00;99.90;;;;;;6277278;22;20051;-93
2022/06/26 04:39:16;;;;;;;14.75;7.80;;;17.30;99.90;;;;;;6251088;22;20500;-93
2022/06/26 04:41:42;;;;;;;15.67;7.73;;;17.80;99.90;;;;;;6256991;22;20019;-94
2022/06/26 04:44:24;;;;;;;14.25;7.25;;;17.60;99.90;;;;;;6279275;22;20234;-93
2022/06/26 04:47:24;;;;;;;12.52;7.75;;;16.70;99.90;;;;;;6211222;22;20015;-93
2022/06/26 04:50:14;;;;;;;13.35;7.85;;;16.90;99.90;;;;;;6290570;22;20039;-93
2022/06/26 04:53:13;;;;;;;13.95;8.60;;;17.60;99.90;;;;;;6288619;22;20440;-93
2022/06/26 04:56:08;;;;;;;;;;;;;;;;;;;;;
2022/06/26 04:59:02;;;;;;;14.23;8.35;;;16.90;99.90;;;;;;6236501;22;20018;-94
2022/06/26 05:02:03;;;;;;;15.57;8.27;;;16.70;99.90;;;;;;6249861;22;20018;-93
2022/06/26 05:04:43;;;;;;;13.93;7.97;;;16.80;99.90;;;;;;6117029;22;20174;-93
2022/06/26 05:07:25;;;;;;;14.00;7.82;;;17.70;99.90;;;;;;6251153;22;20137;-94
2022/06/26 05:10:10;;;;;;;16.20;7.53;;;17.20;99.90;;;;;;6278471;22;20022;-93
2022/06/26 05:12:45;;;;;;;16.60;8.75;;;17.10;99.90;;;;;;6251326;22;20456;-93
2022/06/26 05:15:39;;;;;;;17.13;9.35;;;17.00;99.90;;;;;;6277466;22;20015;-94
2022/06/26 05:18:11;;;;;;;13.98;8.00;;;17.10;99.90;;;;;;6249460;22;20094;-94
2022/06/26 05:21:19;;;;;;;15.27;7.93;;;17.30;99.90;;;;;;6277175;22;20015;-93
2022/06/26 05:24:17;;;;;;;14.02;7.63;;;18.30;99.90;;;;;;6249522;22;20031;-94
2022/06/26 05:31:01;;;;;;;12.25;7.03;;;17.60;99.90;;;;;;6227409;22;20042;-94
2022/06/26 05:34:00;;;;;;;12.95;7.22;;;18.00;99.90;;;;;;6252462;22;20019;-94
2022/06/26 05:37:22;;;;;;;13.48;6.80;;;18.50;99.90;;;;;;6251784;22;20061;-94
2022/06/26 05:43:30;;;;;;;10.52;5.55;;;19.10;99.90;;;;;;6037213;23;20026;-94
2022/06/26 05:58:46;;;;;;;12.70;6.10;;;18.20;99.90;;;;;;6185549;23;20048;-94
2022/06/26 06:09:30;;;;;;;;;;;;;;;;;;;;;
2022/06/26 06:23:22;;;;;;;17.50;10.15;;;19.00;99.90;;;;;;6009836;23;20333;-94
2022/06/26 06:44:21;;;;;;;16.38;10.30;;;19.40;99.90;;;;;;6046351;23;20069;-93
2022/06/26 06:47:45;;;;;;;15.02;10.30;;;19.30;99.90;;;;;;6091171;23;20026;-93
2022/06/26 07:01:59;;;;;;;16.13;10.13;;;18.90;99.90;;;;;;6277238;22;20015;-91
2022/06/26 08:29:53;;;;;;;14.32;9.45;;;20.70;99.90;;;;;;6183156;22;20470;-92
2022/06/26 08:52:17;;;;;;;10.38;5.93;;;20.90;99.90;;;;;;6247201;23;20460;-93
2022/06/26 09:05:11;;;;;;;12.30;7.55;;;21.10;99.90;;;;;;6280655;22;20376;-93
2022/06/26 09:11:44;;;;;;;9.60;5.50;;;22.00;99.90;;;;;;5929202;24;20141;-95
2022/06/26 09:21:33;;;;;;;9.57;4.65;;;21.50;99.90;;;;;;6279163;22;20018;-94
2022/06/26 09:24:36;;;;;;;9.80;4.47;;;20.90;99.90;;;;;;6278509;22;20016;-93
2022/06/26 09:27:25;;;;;;;9.57;4.55;;;21.80;99.90;;;;;;6249774;22;20388;-93
2022/06/26 09:34:36;;;;;;;9.90;4.78;;;21.70;99.90;;;;;;6252389;22;20027;-93
2022/06/26 09:37:34;;;;;;;9.02;4.70;;;22.00;99.90;;;;;;6249818;22;20103;-94
2022/06/26 09:40:35;;;;;;;10.65;5.70;;;22.30;99.90;;;;;;6276392;22;20107;-94
2022/06/26 09:46:53;;;;;;;10.75;5.40;;;22.10;99.90;;;;;;6271813;22;20112;-94
2022/06/26 09:50:06;;;;;;;10.57;5.15;;;21.80;99.90;;;;;;6249438;22;20039;-94
2022/06/26 09:52:52;;;;;;;10.50;5.10;;;21.50;99.90;;;;;;6100596;23;20018;-96
2022/06/26 09:55:34;;;;;;;9.40;4.50;;;22.00;99.90;;;;;;6277965;22;20057;-96
2022/06/26 09:58:34;;;;;;;10.52;4.60;;;22.10;99.90;;;;;;6216671;22;20012;-96
2022/06/26 10:20:28;;;;;;;9.93;4.53;;;22.20;99.90;;;;;;6301773;22;20002;-92
2022/06/26 10:38:04;;;;;;;9.68;4.05;;;23.20;99.90;;;;;;6095370;23;20941;-92
2022/06/26 10:44:38;;;;;;;8.65;3.80;;;23.10;99.90;;;;;;6183258;23;20019;-95
2022/06/26 10:54:16;;;;;;;9.18;4.07;;;23.60;99.90;;;;;;6273440;22;20081;-94
2022/06/26 11:00:49;;;;;;;8.98;4.50;;;23.10;99.90;;;;;;6094852;23;20042;-93
2022/06/26 11:07:05;;;;;;;9.98;4.10;;;23.10;99.90;;;;;;6098173;23;20021;-95
2022/06/26 11:10:33;;;;;;;8.50;3.97;;;23.40;99.90;;;;;;6074632;23;20018;-96
2022/06/26 11:17:07;;;;;;;;;;;;;;;;;;;;;
2022/06/26 11:41:08;;;;;;;10.68;4.10;;;24.40;99.90;;;;;;6274921;22;20066;-92
2022/06/26 11:47:19;;;;;;;8.93;3.95;;;24.00;99.90;;;;;;6182927;23;20024;-92
2022/06/26 11:49:46;;;;;;;9.60;3.92;;;24.00;99.90;;;;;;6247177;22;20043;-92
2022/06/26 11:55:27;;;;;;;8.43;3.92;;;24.00;99.90;;;;;;6272674;22;20125;-92
2022/06/26 11:58:10;;;;;;;8.32;3.63;;;24.30;99.90;;;;;;6182276;23;20029;-92
2022/06/26 12:01:08;;;;;;;9.20;3.72;;;24.30;99.90;;;;;;6182698;23;20035;-92
2022/06/26 12:04:01;;;;;;;8.05;3.55;;;24.50;99.90;;;;;;6224061;22;20051;-90
2022/06/26 12:07:07;;;;;;;8.80;3.40;;;24.70;99.90;;;;;;6277070;22;20026;-91
2022/06/26 12:10:00;;;;;;;7.40;3.30;;;24.80;99.90;;;;;;6253959;22;20136;-94
2022/06/26 12:12:32;;;;;;;9.73;3.08;;;25.00;99.90;;;;;;6138036;22;20030;-92
2022/06/26 12:34:21;;;;;;;10.55;3.45;;;25.30;99.90;;;;;;6072473;23;20072;-93
2022/06/26 12:51:54;;;;;;;8.32;3.70;;;24.20;99.90;;;;;;6040558;23;20365;-96
2022/06/26 13:34:45;;;;;;;10.45;3.58;;;22.70;99.90;;;;;;6283713;22;20033;-91
2022/06/26 13:37:11;;;;;;;9.57;4.05;;;22.80;99.90;;;;;;6250629;22;20023;-96
2022/06/26 13:52:04;;;;;;;9.75;3.78;;;23.20;99.90;;;;;;6277353;22;20018;-94
2022/06/26 15:09:08;;;;;;;9.32;4.38;;;22.50;99.90;;;;;;6223623;22;20343;31
2022/06/26 15:49:07;;;;;;;10.82;5.30;;;21.70;99.90;;;;;;6217116;23;20032;-93
2022/06/26 15:51:48;;;;;;;15.30;7.03;;;21.50;99.90;;;;;;6089217;23;20025;-91
2022/06/26 15:54:14;;;;;;;12.25;5.88;;;22.40;99.90;;;;;;6229334;22;20351;-92
2022/06/26 15:57:46;;;;;;;10.85;4.95;;;21.60;99.90;;;;;;6248635;22;20020;-91
2022/06/26 16:01:18;;;;;;;8.80;4.05;;;21.40;99.90;;;;;;6247489;22;20026;-92
2022/06/26 16:33:24;;;;;;;9.80;4.53;;;21.00;99.90;;;;;;6287652;22;20010;-95
2022/06/26 16:35:59;;;;;;;10.18;4.60;;;21.00;99.90;;;;;;6282736;22;20062;-95
2022/06/26 16:42:04;;;;;;;8.88;4.50;;;20.90;99.90;;;;;;6302049;22;20035;-94
2022/06/26 16:48:41;;;;;;;10.77;4.40;;;20.80;99.90;;;;;;6279870;22;20014;-95
2022/06/26 16:51:10;;;;;;;10.15;4.47;;;21.10;99.90;;;;;;6251965;22;20746;-92
2022/06/26 16:53:48;;;;;;;10.43;4.53;;;21.30;99.90;;;;;;6248785;22;20030;-91
2022/06/26 16:56:14;;;;;;;11.18;4.90;;;20.50;99.90;;;;;;6276737;22;20020;-92
2022/06/26 16:58:55;;;;;;;11.25;4.68;;;20.40;99.90;;;;;;6248254;22;20316;-90
2022/06/26 17:01:36;;;;;;;11.43;5.00;;;20.50;99.90;;;;;;6277013;22;20012;-90
2022/06/26 17:04:08;;;;;;;10.48;4.88;;;20.20;99.90;;;;;;6245999;22;20008;-93
2022/06/26 17:06:53;;;;;;;10.77;4.80;;;19.60;99.90;;;;;;6276409;22;20030;-93
2022/06/26 17:09:19;;;;;;;11.32;5.03;;;20.00;99.90;;;;;;6249514;22;20455;-93
2022/06/26 17:11:58;;;;;;;10.55;4.93;;;20.80;99.90;;;;;;6275141;22;20026;-93
2022/06/26 17:14:23;;;;;;;11.63;5.13;;;20.30;99.90;;;;;;6210995;22;20517;-92
2022/06/26 17:16:58;;;;;;;10.63;5.00;;;19.90;99.90;;;;;;6248820;22;20023;-92
2022/06/26 17:19:38;;;;;;;10.07;4.90;;;19.90;99.90;;;;;;6275750;22;20011;-92
2022/06/26 17:22:10;;;;;;;10.85;4.93;;;20.20;99.90;;;;;;6249225;22;20031;-92
2022/06/26 17:24:56;;;;;;;11.38;5.15;;;20.40;99.90;;;;;;6276588;22;20091;-92
2022/06/26 17:27:50;;;;;;;14.10;5.18;;;19.90;99.90;;;;;;6209060;22;20015;-92
2022/06/26 17:30:31;;;;;;;12.57;5.45;;;20.00;99.90;;;;;;6249763;22;20026;-93
2022/06/26 17:33:12;;;;;;;10.68;5.13;;;19.90;99.90;;;;;;6248104;22;20019;-92
2022/06/26 17:35:56;;;;;;;11.18;5.45;;;19.80;99.90;;;;;;6249607;22;20015;-93
2022/06/26 17:38:38;;;;;;;11.07;5.40;;;20.20;99.90;;;;;;6276786;22;20494;-93
2022/06/26 17:41:24;;;;;;;9.77;4.80;;;19.90;99.90;;;;;;6248706;22;20012;-94
2022/06/26 17:44:00;;;;;;;10.20;5.28;;;19.90;99.90;;;;;;6248779;22;20020;-94
2022/06/26 17:47:44;;;;;;;11.32;4.80;;;20.60;99.90;;;;;;6249044;22;20016;-93
2022/06/26 17:53:07;;;;;;;10.25;5.05;;;19.90;99.90;;;;;;6275905;22;20046;-93
2022/06/26 17:55:48;;;;;;;10.88;5.18;;;19.90;99.90;;;;;;6276287;22;20066;-92
2022/06/26 17:58:26;;;;;;;11.13;5.18;;;19.90;99.90;;;;;;6249130;22;20020;-91
2022/06/26 18:01:10;;;;;;;11.32;4.90;;;20.60;99.90;;;;;;6250612;22;20012;-93
2022/06/26 18:03:51;;;;;;;9.45;4.60;;;19.90;99.90;;;;;;6185822;23;20021;-94
2022/06/26 18:10:01;;;;;;;9.80;4.57;;;19.80;99.90;;;;;;6095246;23;20026;-96
2022/06/26 18:22:35;;;;;;;11.15;4.60;;;19.70;99.90;;;;;;6280048;22;20019;-94
2022/06/26 18:25:20;;;;;;;10.73;4.60;;;19.70;99.90;;;;;;6271033;22;20022;-95
2022/06/26 18:42:31;;;;;;;10.60;4.93;;;19.40;99.90;;;;;;6216378;22;20046;-95
2022/06/26 18:52:42;;;;;;;9.32;4.57;;;19.40;99.90;;;;;;6277593;22;20014;-96
2022/06/26 19:18:44;;;;;;;10.48;5.00;;;19.10;99.90;;;;;;6276100;22;20065;-95
2022/06/26 19:21:34;;;;;;;12.05;5.63;;;19.10;99.90;;;;;;6232913;22;20034;-94
2022/06/26 19:28:07;;;;;;;10.63;5.93;;;19.00;99.90;;;;;;6282375;22;20030;-91
2022/06/26 19:36:48;;;;;;;13.27;6.20;;;19.00;99.90;;;;;;6285045;22;20351;-96
2022/06/26 19:39:24;;;;;;;10.32;5.75;;;19.00;99.90;;;;;;6277898;22;20027;-93
2022/06/26 20:01:31;;;;;;;10.52;5.32;;;18.80;99.90;;;;;;6192800;23;20028;-96
2022/06/26 20:04:16;;;;;;;10.30;5.22;;;18.80;99.90;;;;;;6174168;23;20025;-96
2022/06/26 20:07:35;;;;;;;10.52;5.50;;;19.30;99.90;;;;;;6196679;23;20044;-96
2022/06/26 20:10:16;;;;;;;9.30;4.75;;;18.80;99.90;;;;;;6164833;23;20323;-94
2022/06/26 20:19:06;;;;;;;10.35;5.25;;;18.70;99.90;;;;;;6255564;23;20043;-94
2022/06/26 20:21:47;;;;;;;10.80;5.03;;;18.70;99.90;;;;;;6230195;23;20016;-94
2022/06/26 20:28:16;;;;;;;10.30;4.57;;;18.50;99.90;;;;;;6229499;23;20052;-96
2022/06/26 20:31:00;;;;;;;10.18;4.70;;;18.70;99.90;;;;;;6225085;23;20027;-91
2022/06/26 20:33:29;;;;;;;11.70;5.05;;;19.70;99.90;;;;;;6247133;23;20070;-90
2022/06/26 20:36:01;;;;;;;10.85;4.68;;;18.70;99.90;;;;;;6217576;23;20396;-89
2022/06/26 20:38:40;;;;;;;9.63;4.90;;;18.70;99.90;;;;;;6172240;23;20002;-89
2022/06/26 20:41:09;;;;;;;10.02;4.60;;;19.70;99.90;;;;;;6246953;23;20497;-90
2022/06/26 20:43:38;;;;;;;9.15;4.55;;;19.00;99.90;;;;;;6243150;23;20800;-90
2022/06/26 20:46:36;;;;;;;10.98;4.45;;;18.80;99.90;;;;;;6245387;23;20016;-90
2022/06/26 20:49:12;;;;;;;9.40;4.50;;;18.80;99.90;;;;;;6123243;23;20029;-91
2022/06/26 20:52:01;;;;;;;11.13;4.80;;;19.00;99.90;;;;;;6062725;23;20058;-90
2022/06/26 20:54:46;;;;;;;12.35;4.90;;;19.40;99.90;;;;;;6098488;23;20455;-90
2022/06/26 20:57:14;;;;;;;9.95;4.55;;;18.60;99.90;;;;;;6122344;23;20111;-90
2022/06/26 20:59:46;;;;;;;9.48;4.45;;;19.60;99.90;;;;;;6159855;23;20858;-91
2022/06/26 21:02:14;;;;;;;9.05;4.70;;;19.60;99.90;;;;;;6244729;23;20016;-91
2022/06/26 21:04:44;;;;;;;11.25;4.60;;;18.60;99.90;;;;;;6219090;23;20106;-89
2022/06/26 21:07:41;;;;;;;9.23;4.30;;;18.60;99.90;;;;;;6223799;23;20456;-91
2022/06/26 21:10:26;;;;;;;10.20;4.10;;;18.50;99.90;;;;;;6247174;23;20027;-91
2022/06/26 21:13:23;;;;;;;10.38;4.22;;;18.60;99.90;;;;;;6201800;23;20019;-90
2022/06/26 21:16:14;;;;;;;10.13;4.45;;;18.30;99.90;;;;;;6219050;23;20376;-90
2022/06/26 21:19:09;;;;;;;9.95;4.95;;;18.50;99.90;;;;;;6243796;23;20070;-90
2022/06/26 21:21:47;;;;;;;9.93;4.63;;;18.50;99.90;;;;;;6220345;23;20095;-91
2022/06/26 21:24:35;;;;;;;10.23;4.70;;;18.70;99.90;;;;;;6246459;23;20061;-91
2022/06/26 21:27:36;;;;;;;11.25;4.78;;;18.50;99.90;;;;;;6245677;23;20008;-90
2022/06/26 21:30:14;;;;;;;9.77;4.82;;;19.40;99.90;;;;;;6220737;23;20480;-93
2022/06/26 21:33:07;;;;;;;9.82;4.57;;;18.40;99.90;;;;;;6218312;23;20016;-90
2022/06/26 21:35:36;;;;;;;10.75;4.75;;;18.50;99.90;;;;;;6219467;23;20016;-91
2022/06/26 21:38:01;;;;;;;9.85;4.80;;;18.50;99.90;;;;;;6219160;23;20020;-91
2022/06/26 21:40:39;;;;;;;11.15;4.88;;;18.40;99.90;;;;;;6246767;23;20019;-92
2022/06/26 21:43:08;;;;;;;8.82;4.70;;;18.40;99.90;;;;;;6219766;23;20020;-92
2022/06/26 21:45:34;;;;;;;10.13;5.28;;;18.90;99.90;;;;;;6248684;23;20061;-92
2022/06/26 21:48:04;;;;;;;12.30;5.03;;;19.30;99.90;;;;;;6244107;22;20047;-92
2022/06/26 21:50:30;;;;;;;10.63;4.88;;;18.40;99.90;;;;;;6278718;22;20023;-91
2022/06/26 21:53:14;;;;;;;11.18;5.68;;;18.30;99.90;;;;;;6250609;22;20012;-91
2022/06/26 21:55:59;;;;;;;;;;;18.40;99.90;;;;;;6276999;22;20102;-91
2022/06/26 21:58:27;;;;;;;14.70;6.32;;;18.10;99.90;;;;;;6249894;22;19921;-92
2022/06/26 22:01:02;;;;;;;11.90;6.50;;;18.20;99.90;;;;;;6248353;22;20020;-91
2022/06/26 22:03:47;;;;;;;11.50;6.47;;;18.60;99.90;;;;;;6249731;22;20015;-91
2022/06/26 22:06:18;;;;;;;12.60;6.03;;;17.70;99.90;;;;;;6250051;22;20016;-90
2022/06/26 22:09:02;;;;;;;11.70;6.75;;;18.80;99.90;;;;;;6248769;22;20015;-92
2022/06/26 22:11:28;;;;;;;13.38;6.90;;;18.80;99.90;;;;;;6252775;22;20055;-91
2022/06/26 22:14:04;;;;;;;12.30;6.88;;;18.20;99.90;;;;;;6277026;22;20455;-91
2022/06/26 22:16:33;;;;;;;12.95;7.32;;;18.50;99.90;;;;;;6250196;22;20023;-92
2022/06/26 22:19:01;;;;;;;13.10;7.53;;;18.80;99.90;;;;;;6249185;22;20099;-91
2022/06/26 22:21:27;;;;;;;12.00;7.13;;;18.10;99.90;;;;;;6275777;22;20027;-91
2022/06/26 22:23:52;;;;;;;14.75;7.70;;;18.80;99.90;;;;;;6248897;22;20012;-91
2022/06/26 22:29:27;;;;;;;12.95;7.43;;;19.10;99.90;;;;;;6249665;22;20045;-92
2022/06/26 22:32:08;;;;;;;15.77;7.50;;;18.10;99.90;;;;;;6276267;22;20359;-92
2022/06/26 22:34:35;;;;;;;14.40;7.90;;;18.50;99.90;;;;;;6249737;22;20041;-92
2022/06/26 22:37:07;;;;;;;14.50;7.85;;;18.10;99.90;;;;;;6279640;22;20066;-93
2022/06/26 22:39:45;;;;;;;15.27;8.23;;;18.00;99.90;;;;;;6276277;22;20008;-92
2022/06/26 22:44:39;;;;;;;13.82;9.30;;;18.00;99.90;;;;;;6246986;23;20027;-92
2022/06/26 22:47:04;;;;;;;15.40;8.98;;;18.90;99.90;;;;;;6245775;23;20020;-91
2022/06/26 22:49:53;;;;;;;13.52;9.15;;;17.90;99.90;;;;;;6244398;23;20016;-92
2022/06/26 22:55:26;;;;;;;16.23;10.25;;;18.00;99.90;;;;;;6246844;22;20024;-92
2022/06/26 22:57:55;;;;;;;14.35;10.50;;;17.90;99.90;;;;;;6245562;23;20065;-92
2022/06/26 23:00:24;;;;;;;17.48;10.13;;;17.90;99.90;;;;;;6238381;23;20091;-90
2022/06/26 23:02:53;;;;;;;15.73;10.20;;;18.20;99.90;;;;;;6266594;23;20048;-91
2022/06/26 23:05:23;;;;;;;14.75;9.35;;;17.90;99.90;;;;;;6279516;22;20031;-92
2022/06/26 23:07:52;;;;;;;15.10;10.20;;;17.90;99.90;;;;;;6277712;22;20023;-92
2022/06/26 23:10:20;;;;;;;17.13;10.25;;;17.90;99.90;;;;;;6276712;22;20024;-91
2022/06/26 23:13:01;;;;;;;16.35;9.70;;;18.80;99.90;;;;;;6251941;22;20019;-91
2022/06/26 23:15:45;;;;;;;14.90;9.73;;;17.90;99.90;;;;;;6248841;22;20012;-92
2022/06/26 23:18:30;;;;;;;;;;;17.90;99.90;;;;;;6275039;22;20011;-91
2022/06/26 23:21:00;;;;;;;15.02;10.00;;;18.10;99.90;;;;;;6276025;22;19986;-92
2022/06/26 23:23:32;;;;;;;13.85;9.27;;;17.80;99.90;;;;;;6248719;22;20012;-91
2022/06/26 23:26:13;;;;;;;15.57;9.88;;;18.90;99.90;;;;;;6247456;22;20015;-91
2022/06/26 23:28:42;;;;;;;13.57;9.40;;;18.50;99.90;;;;;;6247675;22;20019;-92
2022/06/26 23:31:17;;;;;;;15.15;10.20;;;18.70;99.90;;;;;;6274895;22;20039;-91
2022/06/26 23:33:44;;;;;;;15.90;9.20;;;17.80;99.90;;;;;;6274708;22;20463;-91
2022/06/26 23:36:09;;;;;;;15.15;9.35;;;18.10;99.90;;;;;;6249342;22;20020;-91
2022/06/26 23:38:35;;;;;;;14.43;9.90;;;18.40;99.90;;;;;;6275415;22;20030;-91
2022/06/26 23:41:13;;;;;;;14.80;9.40;;;17.80;99.90;;;;;;6247044;22;20368;-91
2022/06/26 23:43:42;;;;;;;14.60;9.32;;;18.40;99.90;;;;;;6274526;22;20370;-91
2022/06/26 23:46:08;;;;;;;13.57;9.05;;;17.70;99.90;;;;;;6275245;22;20030;-91
2022/06/26 23:48:33;;;;;;;13.52;9.18;;;17.80;99.90;;;;;;6248798;22;20409;-91
2022/06/26 23:51:28;;;;;;;15.07;9.57;;;17.80;99.90;;;;;;6248543;22;20416;-90
2022/06/26 23:53:54;;;;;;;14.32;8.77;;;17.70;99.90;;;;;;6273866;22;20020;-90
2022/06/26 23:56:20;;;;;;;13.63;9.13;;;18.70;99.90;;;;;;6248940;22;20077;-92
2022/06/26 23:58:51;;;;;;;13.77;8.80;;;17.90;99.90;;;;;;6247562;22;20047;-91
